sensor_id;sensor_type;location;lat;lon;timestamp;P1;P2;P0
75960;PMS7003;64644;48.914;2.254;2024-03-22T00:00:28;37.00;36.00;24.00
75960;PMS7003;64644;48.914;2.254;2024-03-22T00:02:54;35.75;30.75;21.00
75960;PMS7003;64644;48.914;2.254;2024-03-22T00:05:19;34.00;31.75;22.00
75960;PMS7003;64644;48.914;2.254;2024-03-22T00:07:46;32.50;31.50;20.25
75960;PMS7003;64644;48.914;2.254;2024-03-22T00:10:12;33.75;30.50;21.00
75960;PMS7003;64644;48.914;2.254;2024-03-22T00:12:38;33.00;28.00;20.75
75960;PMS7003;64644;48.914;2.254;2024-03-22T00:15:03;28.25;27.50;20.25
75960;PMS7003;64644;48.914;2.254;2024-03-22T00:17:29;31.75;28.00;18.75
75960;PMS7003;64644;48.914;2.254;2024-03-22T00:19:55;30.00;28.50;21.00
75960;PMS7003;64644;48.914;2.254;2024-03-22T00:22:21;35.75;30.75;18.25
75960;PMS7003;64644;48.914;2.254;2024-03-22T00:24:46;27.50;27.50;20.25
75960;PMS7003;64644;48.914;2.254;2024-03-22T00:27:12;39.25;31.25;19.50
75960;PMS7003;64644;48.914;2.254;2024-03-22T00:29:37;30.50;29.25;20.00
75960;PMS7003;64644;48.914;2.254;2024-03-22T00:32:03;32.50;28.50;18.00
75960;PMS7003;64644;48.914;2.254;2024-03-22T00:34:29;30.00;27.00;17.00
75960;PMS7003;64644;48.914;2.254;2024-03-22T00:36:54;29.50;25.00;16.25
75960;PMS7003;64644;48.914;2.254;2024-03-22T00:39:19;33.75;29.75;19.75
75960;PMS7003;64644;48.914;2.254;2024-03-22T00:41:45;26.50;25.00;18.00
75960;PMS7003;64644;48.914;2.254;2024-03-22T00:44:10;26.00;23.75;19.00
75960;PMS7003;64644;48.914;2.254;2024-03-22T00:46:35;31.50;29.75;20.00
75960;PMS7003;64644;48.914;2.254;2024-03-22T00:49:01;33.00;28.75;17.00
75960;PMS7003;64644;48.914;2.254;2024-03-22T00:51:27;35.75;32.25;22.75
75960;PMS7003;64644;48.914;2.254;2024-03-22T00:53:53;33.50;28.00;17.25
75960;PMS7003;64644;48.914;2.254;2024-03-22T00:56:19;35.25;32.75;20.00
75960;PMS7003;64644;48.914;2.254;2024-03-22T00:58:44;29.75;28.75;20.00
75960;PMS7003;64644;48.914;2.254;2024-03-22T01:01:09;33.50;32.50;21.25
75960;PMS7003;64644;48.914;2.254;2024-03-22T01:03:35;33.25;29.75;18.25
75960;PMS7003;64644;48.914;2.254;2024-03-22T01:06:01;28.75;28.00;20.50
75960;PMS7003;64644;48.914;2.254;2024-03-22T01:08:26;35.50;30.00;22.75
75960;PMS7003;64644;48.914;2.254;2024-03-22T01:10:52;32.50;32.50;21.00
75960;PMS7003;64644;48.914;2.254;2024-03-22T01:13:18;27.25;24.00;19.00
75960;PMS7003;64644;48.914;2.254;2024-03-22T01:15:43;38.75;36.25;24.00
75960;PMS7003;64644;48.914;2.254;2024-03-22T01:18:10;37.75;31.75;21.25
75960;PMS7003;64644;48.914;2.254;2024-03-22T01:20:36;34.00;31.50;21.00
75960;PMS7003;64644;48.914;2.254;2024-03-22T01:23:01;34.75;31.50;21.25
75960;PMS7003;64644;48.914;2.254;2024-03-22T01:25:27;30.00;30.00;22.00
75960;PMS7003;64644;48.914;2.254;2024-03-22T01:27:52;37.25;36.50;23.50
75960;PMS7003;64644;48.914;2.254;2024-03-22T01:30:18;36.25;34.25;24.00
75960;PMS7003;64644;48.914;2.254;2024-03-22T01:32:43;32.75;31.25;22.50
75960;PMS7003;64644;48.914;2.254;2024-03-22T01:35:09;39.25;33.75;23.50
75960;PMS7003;64644;48.914;2.254;2024-03-22T01:37:34;33.75;33.75;23.50
75960;PMS7003;64644;48.914;2.254;2024-03-22T01:39:59;43.25;33.75;22.00
75960;PMS7003;64644;48.914;2.254;2024-03-22T01:42:25;39.50;36.00;23.25
75960;PMS7003;64644;48.914;2.254;2024-03-22T01:44:50;32.75;30.00;21.75
75960;PMS7003;64644;48.914;2.254;2024-03-22T01:47:16;38.75;36.00;23.25
75960;PMS7003;64644;48.914;2.254;2024-03-22T01:49:42;37.25;36.00;23.00
75960;PMS7003;64644;48.914;2.254;2024-03-22T01:52:08;41.75;35.25;25.00
75960;PMS7003;64644;48.914;2.254;2024-03-22T01:54:33;42.25;37.50;22.00
75960;PMS7003;64644;48.914;2.254;2024-03-22T01:56:58;30.00;29.25;21.00
75960;PMS7003;64644;48.914;2.254;2024-03-22T01:59:24;40.00;37.00;24.00
75960;PMS7003;64644;48.914;2.254;2024-03-22T02:01:51;40.25;36.25;24.00
75960;PMS7003;64644;48.914;2.254;2024-03-22T02:04:17;43.00;36.50;24.50
75960;PMS7003;64644;48.914;2.254;2024-03-22T02:06:42;36.50;34.25;22.75
75960;PMS7003;64644;48.914;2.254;2024-03-22T02:09:08;39.00;34.50;24.00
75960;PMS7003;64644;48.914;2.254;2024-03-22T02:11:36;39.50;35.75;24.00
75960;PMS7003;64644;48.914;2.254;2024-03-22T02:14:05;41.25;38.50;24.00
75960;PMS7003;64644;48.914;2.254;2024-03-22T02:16:30;38.50;34.00;23.25
75960;PMS7003;64644;48.914;2.254;2024-03-22T02:18:56;43.50;38.50;25.00
75960;PMS7003;64644;48.914;2.254;2024-03-22T02:21:21;46.75;36.75;24.00
75960;PMS7003;64644;48.914;2.254;2024-03-22T02:23:46;47.00;39.00;26.50
75960;PMS7003;64644;48.914;2.254;2024-03-22T02:26:12;48.50;39.00;23.50
75960;PMS7003;64644;48.914;2.254;2024-03-22T02:28:37;41.75;33.25;22.50
75960;PMS7003;64644;48.914;2.254;2024-03-22T02:31:03;46.00;40.50;27.00
75960;PMS7003;64644;48.914;2.254;2024-03-22T02:33:28;40.50;36.50;24.25
75960;PMS7003;64644;48.914;2.254;2024-03-22T02:35:54;43.25;37.75;24.50
75960;PMS7003;64644;48.914;2.254;2024-03-22T02:38:19;42.75;37.75;24.25
75960;PMS7003;64644;48.914;2.254;2024-03-22T02:40:45;43.50;36.75;24.00
75960;PMS7003;64644;48.914;2.254;2024-03-22T02:43:11;44.00;36.25;24.00
75960;PMS7003;64644;48.914;2.254;2024-03-22T02:45:37;45.00;38.50;24.00
75960;PMS7003;64644;48.914;2.254;2024-03-22T02:48:03;43.75;38.50;24.00
75960;PMS7003;64644;48.914;2.254;2024-03-22T02:50:32;39.00;36.75;23.75
75960;PMS7003;64644;48.914;2.254;2024-03-22T02:53:01;40.25;37.25;25.75
75960;PMS7003;64644;48.914;2.254;2024-03-22T02:55:27;45.50;40.75;24.00
75960;PMS7003;64644;48.914;2.254;2024-03-22T02:57:53;44.25;38.50;24.75
75960;PMS7003;64644;48.914;2.254;2024-03-22T03:00:18;43.50;39.00;26.75
75960;PMS7003;64644;48.914;2.254;2024-03-22T03:02:45;47.00;40.75;27.00
75960;PMS7003;64644;48.914;2.254;2024-03-22T03:05:11;47.00;41.00;24.50
75960;PMS7003;64644;48.914;2.254;2024-03-22T03:07:36;48.25;38.00;24.75
75960;PMS7003;64644;48.914;2.254;2024-03-22T03:10:02;40.00;37.25;23.75
75960;PMS7003;64644;48.914;2.254;2024-03-22T03:12:27;41.75;38.75;25.00
75960;PMS7003;64644;48.914;2.254;2024-03-22T03:14:52;46.50;38.25;24.25
75960;PMS7003;64644;48.914;2.254;2024-03-22T03:17:18;37.50;30.50;16.75
75960;PMS7003;64644;48.914;2.254;2024-03-22T03:19:43;43.75;39.50;24.75
75960;PMS7003;64644;48.914;2.254;2024-03-22T03:22:09;45.75;41.00;25.50
75960;PMS7003;64644;48.914;2.254;2024-03-22T03:24:34;45.00;38.75;24.25
75960;PMS7003;64644;48.914;2.254;2024-03-22T03:27:00;43.33;37.67;26.33
75960;PMS7003;64644;48.914;2.254;2024-03-22T03:29:25;44.50;40.00;26.25
75960;PMS7003;64644;48.914;2.254;2024-03-22T03:31:50;48.33;40.33;27.00
75960;PMS7003;64644;48.914;2.254;2024-03-22T03:34:16;45.75;39.00;25.50
75960;PMS7003;64644;48.914;2.254;2024-03-22T03:36:41;44.00;38.25;27.00
75960;PMS7003;64644;48.914;2.254;2024-03-22T03:39:07;42.75;37.75;26.00
75960;PMS7003;64644;48.914;2.254;2024-03-22T03:41:32;44.50;39.75;23.75
75960;PMS7003;64644;48.914;2.254;2024-03-22T03:43:57;46.00;37.50;27.00
75960;PMS7003;64644;48.914;2.254;2024-03-22T03:46:23;36.25;29.25;22.50
75960;PMS7003;64644;48.914;2.254;2024-03-22T03:48:48;40.75;36.25;25.00
75960;PMS7003;64644;48.914;2.254;2024-03-22T03:51:14;47.00;40.00;25.00
75960;PMS7003;64644;48.914;2.254;2024-03-22T03:53:39;37.75;36.50;26.00
75960;PMS7003;64644;48.914;2.254;2024-03-22T03:56:04;40.75;36.75;25.00
75960;PMS7003;64644;48.914;2.254;2024-03-22T03:58:29;43.50;38.25;25.75
75960;PMS7003;64644;48.914;2.254;2024-03-22T04:00:55;42.50;37.00;24.25
75960;PMS7003;64644;48.914;2.254;2024-03-22T04:03:20;39.00;33.25;22.00
75960;PMS7003;64644;48.914;2.254;2024-03-22T04:05:45;40.00;36.75;25.00
75960;PMS7003;64644;48.914;2.254;2024-03-22T04:08:11;39.75;37.75;26.75
75960;PMS7003;64644;48.914;2.254;2024-03-22T04:10:36;38.50;35.50;24.50
75960;PMS7003;64644;48.914;2.254;2024-03-22T04:13:02;39.25;36.75;22.75
75960;PMS7003;64644;48.914;2.254;2024-03-22T04:15:27;45.50;38.25;24.50
75960;PMS7003;64644;48.914;2.254;2024-03-22T04:17:54;51.00;40.25;26.75
75960;PMS7003;64644;48.914;2.254;2024-03-22T04:20:21;39.75;34.75;24.75
75960;PMS7003;64644;48.914;2.254;2024-03-22T04:22:46;41.50;36.00;22.50
75960;PMS7003;64644;48.914;2.254;2024-03-22T04:25:14;39.00;37.00;23.75
75960;PMS7003;64644;48.914;2.254;2024-03-22T04:27:40;40.50;36.25;23.75
75960;PMS7003;64644;48.914;2.254;2024-03-22T04:30:05;43.50;36.25;25.00
75960;PMS7003;64644;48.914;2.254;2024-03-22T04:32:31;40.25;35.00;25.00
75960;PMS7003;64644;48.914;2.254;2024-03-22T04:34:56;36.50;33.75;25.00
75960;PMS7003;64644;48.914;2.254;2024-03-22T04:37:22;43.25;37.50;26.25
75960;PMS7003;64644;48.914;2.254;2024-03-22T04:39:47;44.00;38.75;25.00
75960;PMS7003;64644;48.914;2.254;2024-03-22T04:42:12;44.50;39.75;26.50
75960;PMS7003;64644;48.914;2.254;2024-03-22T04:44:38;42.50;36.50;24.25
75960;PMS7003;64644;48.914;2.254;2024-03-22T04:47:03;39.75;36.25;23.50
75960;PMS7003;64644;48.914;2.254;2024-03-22T04:49:28;50.50;40.75;24.75
75960;PMS7003;64644;48.914;2.254;2024-03-22T04:51:54;42.25;36.25;25.00
75960;PMS7003;64644;48.914;2.254;2024-03-22T04:54:20;55.25;39.25;25.00
75960;PMS7003;64644;48.914;2.254;2024-03-22T04:56:45;40.25;37.00;25.00
75960;PMS7003;64644;48.914;2.254;2024-03-22T04:59:10;43.25;37.00;22.25
75960;PMS7003;64644;48.914;2.254;2024-03-22T05:01:36;55.25;41.25;25.00
75960;PMS7003;64644;48.914;2.254;2024-03-22T05:04:01;43.25;39.00;26.25
75960;PMS7003;64644;48.914;2.254;2024-03-22T05:06:26;47.75;40.75;25.00
75960;PMS7003;64644;48.914;2.254;2024-03-22T05:08:52;39.75;37.50;25.00
75960;PMS7003;64644;48.914;2.254;2024-03-22T05:11:17;43.75;39.25;25.00
75960;PMS7003;64644;48.914;2.254;2024-03-22T05:13:42;43.50;38.25;25.00
75960;PMS7003;64644;48.914;2.254;2024-03-22T05:16:08;42.25;36.50;22.25
75960;PMS7003;64644;48.914;2.254;2024-03-22T05:18:33;43.50;37.25;25.00
75960;PMS7003;64644;48.914;2.254;2024-03-22T05:20:58;45.50;38.00;25.25
75960;PMS7003;64644;48.914;2.254;2024-03-22T05:23:24;47.00;40.00;25.00
75960;PMS7003;64644;48.914;2.254;2024-03-22T05:25:49;40.00;37.25;25.50
75960;PMS7003;64644;48.914;2.254;2024-03-22T05:28:15;45.25;37.25;25.00
75960;PMS7003;64644;48.914;2.254;2024-03-22T05:30:40;49.50;40.25;25.00
75960;PMS7003;64644;48.914;2.254;2024-03-22T05:33:05;46.00;38.25;25.50
75960;PMS7003;64644;48.914;2.254;2024-03-22T05:35:31;45.75;41.25;27.50
75960;PMS7003;64644;48.914;2.254;2024-03-22T05:37:56;43.50;38.00;25.00
75960;PMS7003;64644;48.914;2.254;2024-03-22T05:40:21;47.00;39.25;25.00
75960;PMS7003;64644;48.914;2.254;2024-03-22T05:42:48;43.25;39.50;25.50
75960;PMS7003;64644;48.914;2.254;2024-03-22T05:45:13;49.33;40.67;25.00
75960;PMS7003;64644;48.914;2.254;2024-03-22T05:47:38;48.75;41.50;26.50
75960;PMS7003;64644;48.914;2.254;2024-03-22T05:50:04;45.33;41.00;26.67
75960;PMS7003;64644;48.914;2.254;2024-03-22T05:52:32;48.25;40.00;26.75
75960;PMS7003;64644;48.914;2.254;2024-03-22T05:54:58;47.50;41.75;27.00
75960;PMS7003;64644;48.914;2.254;2024-03-22T05:57:23;48.00;40.75;25.50
75960;PMS7003;64644;48.914;2.254;2024-03-22T05:59:49;47.25;41.25;27.25
75960;PMS7003;64644;48.914;2.254;2024-03-22T06:02:14;41.50;38.25;25.00
75960;PMS7003;64644;48.914;2.254;2024-03-22T06:04:40;42.00;37.00;25.00
75960;PMS7003;64644;48.914;2.254;2024-03-22T06:07:06;52.75;44.75;28.50
75960;PMS7003;64644;48.914;2.254;2024-03-22T06:09:31;46.75;42.25;27.50
75960;PMS7003;64644;48.914;2.254;2024-03-22T06:12:03;53.50;43.25;27.75
75960;PMS7003;64644;48.914;2.254;2024-03-22T06:14:29;52.75;42.50;27.00
75960;PMS7003;64644;48.914;2.254;2024-03-22T06:16:55;46.50;40.25;25.25
75960;PMS7003;64644;48.914;2.254;2024-03-22T06:19:20;47.67;40.33;26.33
75960;PMS7003;64644;48.914;2.254;2024-03-22T06:21:45;44.00;38.33;28.00
75960;PMS7003;64644;48.914;2.254;2024-03-22T06:24:11;47.33;43.00;26.00
75960;PMS7003;64644;48.914;2.254;2024-03-22T06:26:36;45.00;40.33;28.00
75960;PMS7003;64644;48.914;2.254;2024-03-22T06:29:01;52.25;41.75;25.00
75960;PMS7003;64644;48.914;2.254;2024-03-22T06:31:27;54.25;42.25;25.75
75960;PMS7003;64644;48.914;2.254;2024-03-22T06:33:53;50.00;43.00;28.50
75960;PMS7003;64644;48.914;2.254;2024-03-22T06:36:19;57.75;45.50;28.50
75960;PMS7003;64644;48.914;2.254;2024-03-22T06:38:44;56.50;44.50;27.25
75960;PMS7003;64644;48.914;2.254;2024-03-22T06:41:10;57.00;44.00;28.00
75960;PMS7003;64644;48.914;2.254;2024-03-22T06:43:35;53.75;43.75;27.50
75960;PMS7003;64644;48.914;2.254;2024-03-22T06:46:00;46.33;42.00;28.00
75960;PMS7003;64644;48.914;2.254;2024-03-22T06:48:26;53.67;42.67;27.67
75960;PMS7003;64644;48.914;2.254;2024-03-22T06:50:51;51.50;44.50;28.25
75960;PMS7003;64644;48.914;2.254;2024-03-22T06:53:16;48.67;42.00;24.00
75960;PMS7003;64644;48.914;2.254;2024-03-22T06:55:41;57.00;47.33;29.00
75960;PMS7003;64644;48.914;2.254;2024-03-22T06:58:07;49.67;42.67;28.33
75960;PMS7003;64644;48.914;2.254;2024-03-22T07:00:32;56.00;45.00;27.67
75960;PMS7003;64644;48.914;2.254;2024-03-22T07:02:59;53.50;44.00;29.00
75960;PMS7003;64644;48.914;2.254;2024-03-22T07:05:27;59.50;44.00;29.00
75960;PMS7003;64644;48.914;2.254;2024-03-22T07:07:53;56.00;46.25;29.00
75960;PMS7003;64644;48.914;2.254;2024-03-22T07:10:21;58.00;46.00;28.00
75960;PMS7003;64644;48.914;2.254;2024-03-22T07:12:48;57.25;45.25;29.75
75960;PMS7003;64644;48.914;2.254;2024-03-22T07:15:13;56.00;43.50;28.75
75960;PMS7003;64644;48.914;2.254;2024-03-22T07:17:38;54.67;45.00;29.00
75960;PMS7003;64644;48.914;2.254;2024-03-22T07:20:04;55.25;44.25;28.50
75960;PMS7003;64644;48.914;2.254;2024-03-22T07:22:31;54.50;44.75;29.00
75960;PMS7003;64644;48.914;2.254;2024-03-22T07:24:56;54.67;46.33;29.00
75960;PMS7003;64644;48.914;2.254;2024-03-22T07:27:22;53.67;45.00;28.33
75960;PMS7003;64644;48.914;2.254;2024-03-22T07:29:47;53.33;44.67;29.00
75960;PMS7003;64644;48.914;2.254;2024-03-22T07:32:12;57.67;46.00;28.67
75960;PMS7003;64644;48.914;2.254;2024-03-22T07:34:38;52.00;43.50;29.75
75960;PMS7003;64644;48.914;2.254;2024-03-22T07:37:03;56.00;44.50;28.50
75960;PMS7003;64644;48.914;2.254;2024-03-22T07:39:29;53.00;45.00;29.00
75960;PMS7003;64644;48.914;2.254;2024-03-22T07:41:54;56.50;45.50;28.75
75960;PMS7003;64644;48.914;2.254;2024-03-22T07:44:19;55.67;43.67;29.67
75960;PMS7003;64644;48.914;2.254;2024-03-22T07:46:45;61.25;46.75;30.00
75960;PMS7003;64644;48.914;2.254;2024-03-22T07:49:11;58.00;45.25;30.25
75960;PMS7003;64644;48.914;2.254;2024-03-22T07:51:37;59.75;50.25;29.00
75960;PMS7003;64644;48.914;2.254;2024-03-22T07:54:03;60.50;51.50;32.50
75960;PMS7003;64644;48.914;2.254;2024-03-22T07:56:29;48.75;39.50;21.25
75960;PMS7003;64644;48.914;2.254;2024-03-22T07:58:55;57.75;46.25;29.50
75960;PMS7003;64644;48.914;2.254;2024-03-22T08:01:20;62.50;48.75;31.75
75960;PMS7003;64644;48.914;2.254;2024-03-22T08:03:46;58.25;46.25;29.00
75960;PMS7003;64644;48.914;2.254;2024-03-22T08:06:11;52.50;44.50;28.25
75960;PMS7003;64644;48.914;2.254;2024-03-22T08:08:37;57.25;47.00;29.00
75960;PMS7003;64644;48.914;2.254;2024-03-22T08:11:02;53.00;41.67;26.67
75960;PMS7003;64644;48.914;2.254;2024-03-22T08:13:27;50.00;41.75;27.25
75960;PMS7003;64644;48.914;2.254;2024-03-22T08:15:52;51.33;40.00;27.33
75960;PMS7003;64644;48.914;2.254;2024-03-22T08:18:18;44.25;39.75;26.00
75960;PMS7003;64644;48.914;2.254;2024-03-22T08:20:44;57.00;47.25;28.50
75960;PMS7003;64644;48.914;2.254;2024-03-22T08:23:09;54.00;44.50;28.25
75960;PMS7003;64644;48.914;2.254;2024-03-22T08:25:35;45.25;39.25;24.00
75960;PMS7003;64644;48.914;2.254;2024-03-22T08:28:01;52.25;40.75;27.00
75960;PMS7003;64644;48.914;2.254;2024-03-22T08:30:27;56.75;48.00;29.00
75960;PMS7003;64644;48.914;2.254;2024-03-22T08:32:52;55.25;43.50;27.50
75960;PMS7003;64644;48.914;2.254;2024-03-22T08:35:17;53.25;43.75;28.25
75960;PMS7003;64644;48.914;2.254;2024-03-22T08:37:43;52.00;43.75;27.50
75960;PMS7003;64644;48.914;2.254;2024-03-22T08:40:08;54.00;42.50;27.25
75960;PMS7003;64644;48.914;2.254;2024-03-22T08:42:35;55.25;40.50;25.00
75960;PMS7003;64644;48.914;2.254;2024-03-22T08:45:00;51.25;44.00;28.00
75960;PMS7003;64644;48.914;2.254;2024-03-22T08:47:26;48.33;41.67;27.00
75960;PMS7003;64644;48.914;2.254;2024-03-22T08:49:51;55.67;44.33;27.00
75960;PMS7003;64644;48.914;2.254;2024-03-22T08:52:16;49.25;42.50;27.00
75960;PMS7003;64644;48.914;2.254;2024-03-22T08:54:42;47.67;41.00;25.00
75960;PMS7003;64644;48.914;2.254;2024-03-22T08:57:07;42.25;37.75;24.25
75960;PMS7003;64644;48.914;2.254;2024-03-22T08:59:32;49.00;41.67;27.33
75960;PMS7003;64644;48.914;2.254;2024-03-22T09:01:58;43.50;35.25;23.00
75960;PMS7003;64644;48.914;2.254;2024-03-22T09:04:24;41.75;39.25;27.00
75960;PMS7003;64644;48.914;2.254;2024-03-22T09:06:50;45.25;38.25;23.00
75960;PMS7003;64644;48.914;2.254;2024-03-22T09:09:15;47.75;40.00;24.75
75960;PMS7003;64644;48.914;2.254;2024-03-22T09:11:41;41.00;36.00;24.00
75960;PMS7003;64644;48.914;2.254;2024-03-22T09:14:07;54.75;40.25;24.00
75960;PMS7003;64644;48.914;2.254;2024-03-22T09:16:32;43.00;39.00;24.67
75960;PMS7003;64644;48.914;2.254;2024-03-22T09:18:58;50.25;41.50;26.75
75960;PMS7003;64644;48.914;2.254;2024-03-22T09:21:23;44.67;39.00;24.00
75960;PMS7003;64644;48.914;2.254;2024-03-22T09:23:49;45.75;40.25;24.50
75960;PMS7003;64644;48.914;2.254;2024-03-22T09:26:15;47.25;37.00;24.00
75960;PMS7003;64644;48.914;2.254;2024-03-22T09:28:40;38.33;24.00;12.33
75960;PMS7003;64644;48.914;2.254;2024-03-22T09:31:07;41.00;34.75;23.75
75960;PMS7003;64644;48.914;2.254;2024-03-22T09:33:33;36.00;33.50;21.25
75960;PMS7003;64644;48.914;2.254;2024-03-22T09:36:04;37.75;33.50;20.00
75960;PMS7003;64644;48.914;2.254;2024-03-22T09:38:29;40.50;36.00;23.75
75960;PMS7003;64644;48.914;2.254;2024-03-22T09:40:55;36.33;33.33;21.67
75960;PMS7003;64644;48.914;2.254;2024-03-22T09:43:20;38.50;34.75;24.00
75960;PMS7003;64644;48.914;2.254;2024-03-22T09:45:47;38.50;35.50;22.25
75960;PMS7003;64644;48.914;2.254;2024-03-22T09:48:14;40.75;36.00;24.25
75960;PMS7003;64644;48.914;2.254;2024-03-22T09:50:40;43.75;39.00;24.00
75960;PMS7003;64644;48.914;2.254;2024-03-22T09:53:06;57.00;44.00;28.75
75960;PMS7003;64644;48.914;2.254;2024-03-22T09:55:31;49.00;40.50;27.00
75960;PMS7003;64644;48.914;2.254;2024-03-22T09:57:58;43.75;37.00;23.25
75960;PMS7003;64644;48.914;2.254;2024-03-22T10:00:23;38.67;37.00;24.00
75960;PMS7003;64644;48.914;2.254;2024-03-22T10:02:51;41.75;36.75;25.00
75960;PMS7003;64644;48.914;2.254;2024-03-22T10:05:16;41.25;36.50;22.50
75960;PMS7003;64644;48.914;2.254;2024-03-22T10:07:42;41.00;36.75;21.75
75960;PMS7003;64644;48.914;2.254;2024-03-22T10:10:08;34.25;30.50;22.50
75960;PMS7003;64644;48.914;2.254;2024-03-22T10:12:35;40.25;36.00;23.00
75960;PMS7003;64644;48.914;2.254;2024-03-22T10:15:00;48.50;36.50;23.50
75960;PMS7003;64644;48.914;2.254;2024-03-22T10:17:26;39.00;36.00;24.00
75960;PMS7003;64644;48.914;2.254;2024-03-22T10:19:52;38.50;34.75;23.00
75960;PMS7003;64644;48.914;2.254;2024-03-22T10:22:17;35.25;34.00;22.00
75960;PMS7003;64644;48.914;2.254;2024-03-22T10:24:43;36.25;33.75;23.00
75960;PMS7003;64644;48.914;2.254;2024-03-22T10:27:09;36.00;31.25;20.00
75960;PMS7003;64644;48.914;2.254;2024-03-22T10:29:35;36.75;34.50;23.50
75960;PMS7003;64644;48.914;2.254;2024-03-22T10:32:01;49.75;38.75;22.25
75960;PMS7003;64644;48.914;2.254;2024-03-22T10:34:27;40.25;33.50;19.50
75960;PMS7003;64644;48.914;2.254;2024-03-22T10:36:53;37.75;35.00;23.00
75960;PMS7003;64644;48.914;2.254;2024-03-22T10:39:21;36.00;33.00;21.50
75960;PMS7003;64644;48.914;2.254;2024-03-22T10:41:48;37.50;32.25;24.50
75960;PMS7003;64644;48.914;2.254;2024-03-22T10:44:14;41.50;36.75;22.25
75960;PMS7003;64644;48.914;2.254;2024-03-22T10:46:43;35.50;35.00;23.25
75960;PMS7003;64644;48.914;2.254;2024-03-22T10:49:11;43.25;35.25;23.00
75960;PMS7003;64644;48.914;2.254;2024-03-22T10:51:42;41.00;36.00;22.75
75960;PMS7003;64644;48.914;2.254;2024-03-22T10:54:11;39.75;36.25;24.00
75960;PMS7003;64644;48.914;2.254;2024-03-22T10:56:42;32.50;31.75;21.00
75960;PMS7003;64644;48.914;2.254;2024-03-22T10:59:08;37.75;35.25;24.50
75960;PMS7003;64644;48.914;2.254;2024-03-22T11:01:33;42.00;39.00;26.00
75960;PMS7003;64644;48.914;2.254;2024-03-22T11:04:05;41.00;36.75;23.75
75960;PMS7003;64644;48.914;2.254;2024-03-22T11:06:37;37.50;35.25;23.50
75960;PMS7003;64644;48.914;2.254;2024-03-22T11:09:02;35.75;33.50;23.50
75960;PMS7003;64644;48.914;2.254;2024-03-22T11:11:31;35.50;33.50;22.50
75960;PMS7003;64644;48.914;2.254;2024-03-22T11:14:02;36.50;32.75;21.25
75960;PMS7003;64644;48.914;2.254;2024-03-22T11:16:27;38.75;34.50;22.25
75960;PMS7003;64644;48.914;2.254;2024-03-22T11:18:53;34.50;32.75;23.00
75960;PMS7003;64644;48.914;2.254;2024-03-22T11:21:19;37.50;35.50;23.25
75960;PMS7003;64644;48.914;2.254;2024-03-22T11:23:45;30.25;24.50;19.00
75960;PMS7003;64644;48.914;2.254;2024-03-22T11:26:11;40.75;32.25;20.50
75960;PMS7003;64644;48.914;2.254;2024-03-22T11:28:37;33.75;32.00;18.50
75960;PMS7003;64644;48.914;2.254;2024-03-22T11:31:03;36.50;34.50;20.00
75960;PMS7003;64644;48.914;2.254;2024-03-22T11:33:29;33.50;31.25;20.00
75960;PMS7003;64644;48.914;2.254;2024-03-22T11:35:55;32.00;30.25;17.50
75960;PMS7003;64644;48.914;2.254;2024-03-22T11:38:23;29.25;28.00;16.25
75960;PMS7003;64644;48.914;2.254;2024-03-22T11:40:52;38.25;32.25;18.50
75960;PMS7003;64644;48.914;2.254;2024-03-22T11:43:19;37.25;32.50;20.00
75960;PMS7003;64644;48.914;2.254;2024-03-22T11:45:45;38.00;33.50;19.50
75960;PMS7003;64644;48.914;2.254;2024-03-22T11:48:11;36.25;34.00;20.00
75960;PMS7003;64644;48.914;2.254;2024-03-22T11:50:37;33.75;31.25;22.00
75960;PMS7003;64644;48.914;2.254;2024-03-22T11:53:04;31.75;28.25;18.25
75960;PMS7003;64644;48.914;2.254;2024-03-22T11:55:30;38.25;34.75;20.50
75960;PMS7003;64644;48.914;2.254;2024-03-22T11:57:59;34.00;30.75;18.00
75960;PMS7003;64644;48.914;2.254;2024-03-22T12:00:24;32.50;31.00;19.50
75960;PMS7003;64644;48.914;2.254;2024-03-22T12:02:50;35.50;31.50;20.50
75960;PMS7003;64644;48.914;2.254;2024-03-22T12:05:20;30.25;30.00;18.00
75960;PMS7003;64644;48.914;2.254;2024-03-22T12:07:45;35.50;31.50;18.75
75960;PMS7003;64644;48.914;2.254;2024-03-22T12:10:11;35.50;33.00;20.75
75960;PMS7003;64644;48.914;2.254;2024-03-22T12:12:36;28.50;24.00;17.00
75960;PMS7003;64644;48.914;2.254;2024-03-22T12:15:02;24.50;23.00;16.75
75960;PMS7003;64644;48.914;2.254;2024-03-22T12:17:28;27.75;27.75;17.50
75960;PMS7003;64644;48.914;2.254;2024-03-22T12:19:54;29.25;26.25;18.50
75960;PMS7003;64644;48.914;2.254;2024-03-22T12:22:21;30.25;28.75;18.00
75960;PMS7003;64644;48.914;2.254;2024-03-22T12:24:47;35.75;30.25;21.00
75960;PMS7003;64644;48.914;2.254;2024-03-22T12:27:12;30.00;27.50;19.25
75960;PMS7003;64644;48.914;2.254;2024-03-22T12:29:37;31.50;27.75;19.25
75960;PMS7003;64644;48.914;2.254;2024-03-22T12:32:03;35.50;29.00;19.00
75960;PMS7003;64644;48.914;2.254;2024-03-22T12:34:31;33.25;29.25;19.00
75960;PMS7003;64644;48.914;2.254;2024-03-22T12:36:58;22.50;22.25;16.00
75960;PMS7003;64644;48.914;2.254;2024-03-22T12:39:24;26.75;26.00;18.00
75960;PMS7003;64644;48.914;2.254;2024-03-22T12:41:50;33.25;28.75;17.25
75960;PMS7003;64644;48.914;2.254;2024-03-22T12:44:15;25.00;22.75;15.50
75960;PMS7003;64644;48.914;2.254;2024-03-22T12:46:41;25.00;23.75;13.75
75960;PMS7003;64644;48.914;2.254;2024-03-22T12:49:08;24.25;24.25;17.00
75960;PMS7003;64644;48.914;2.254;2024-03-22T12:51:34;34.75;29.50;16.75
75960;PMS7003;64644;48.914;2.254;2024-03-22T12:54:01;25.00;21.00;12.75
75960;PMS7003;64644;48.914;2.254;2024-03-22T12:56:26;22.00;22.00;16.00
75960;PMS7003;64644;48.914;2.254;2024-03-22T12:58:51;27.25;23.75;15.00
75960;PMS7003;64644;48.914;2.254;2024-03-22T13:01:17;22.50;21.00;12.25
75960;PMS7003;64644;48.914;2.254;2024-03-22T13:03:42;20.25;18.50;12.25
75960;PMS7003;64644;48.914;2.254;2024-03-22T13:06:07;19.33;19.00;14.00
75960;PMS7003;64644;48.914;2.254;2024-03-22T13:08:33;22.67;21.67;17.00
75960;PMS7003;64644;48.914;2.254;2024-03-22T13:10:58;21.25;21.25;15.00
75960;PMS7003;64644;48.914;2.254;2024-03-22T13:13:23;21.50;19.25;13.50
75960;PMS7003;64644;48.914;2.254;2024-03-22T13:15:49;26.25;21.50;14.00
75960;PMS7003;64644;48.914;2.254;2024-03-22T13:18:14;20.75;20.25;12.25
75960;PMS7003;64644;48.914;2.254;2024-03-22T13:20:40;24.50;23.75;16.25
75960;PMS7003;64644;48.914;2.254;2024-03-22T13:23:05;23.00;20.50;14.00
75960;PMS7003;64644;48.914;2.254;2024-03-22T13:25:32;24.25;22.00;15.75
75960;PMS7003;64644;48.914;2.254;2024-03-22T13:28:01;21.75;16.25;12.50
75960;PMS7003;64644;48.914;2.254;2024-03-22T13:30:27;22.50;22.50;13.50
75960;PMS7003;64644;48.914;2.254;2024-03-22T13:32:53;22.00;17.00;12.00
75960;PMS7003;64644;48.914;2.254;2024-03-22T13:35:18;20.00;18.25;12.25
75960;PMS7003;64644;48.914;2.254;2024-03-22T13:37:43;18.00;15.50;12.25